Hlavní strana
METAR-TAF:

METAR-TAF

Letiště :

Pskov, Rusko

zeměpisná šířka: 57-47-06N, zeměpisná délka: 028-23-54E, výška: 47 m

Aktuální stav počasí

Zpráva byla vytvořena před 15 minutami, v 20:00 UTC
Bezvětří
Teplota 14°C
Vlhkost vzduchu 100%
Tlak 1019 hPa
Viditelnost 10 km a více
Žádná oblačnost pod 1500 m, nevyskytují se cumulonimby.

METAR: ULOO 252000Z 00000MPS CAVOK 14/14 Q1019 R01/090070 NOSIG RMK QFE760

Čas: 23:15 (20:15 UTC)

Předpověď počasí

Zpráva byla vytvořena před 3 hodinami a 20 minutami, v 16:55 UTC
Předpověď platná od 25 v 18 UTC do 26 v 03 UTC
vítr z různých směrů 2 kt
Viditelnost 10 km a více
Polojasno ve výšce 4000 ft
Dočasný
od 25 v 18 UTC do 25 v 21 UTC
Východní vítr 6 kt
Dočasný
od 25 v 21 UTC do 26 v 03 UTC
Viditelnost: 5000 m
Skoro jasno ve výšce 1000 ft
Přízemní mlha, kouřmo

TAF: ULOO 251655Z 2518/2603 VRB01MPS 9999 SCT040 TEMPO 2518/2521 09003MPS TEMPO 2521/2603 5000 MIFG BR FEW010

Stav a předpovědi počasí z více než 4 000 letišť (zprávy METAR a TAF).

Červené a žluté tečky na mapě představují dostupné meteorologické stanice.

Když kurzor umístíte na tečku, zobrazí se název stanice.

Pak kliknutím zobrazíte stav a předpověď počasí.

Chcete-li změnit mapu, kliknutím na zelené tlačítko se znaménkem +mapu přiblížíte, kliknutím na zelené tlačítko se znaménkem – mapu oddálíte a kliknutím na zelené šipky přejdete na sousední mapy.


METAR-TAF: